sensor_id;sensor_type;location;lat;lon;timestamp;pressure;altitude;pressure_sealevel;temperature;humidity
65784;BME280;52532;53.358;-1.488;2022-10-31T00:00:50;100369.16;;;12.77;63.78
65784;BME280;52532;53.358;-1.488;2022-10-31T00:03:54;100369.99;;;17.36;58.44
65784;BME280;52532;53.358;-1.488;2022-10-31T00:06:57;100372.04;;;17.69;55.88
65784;BME280;52532;53.358;-1.488;2022-10-31T00:10:00;100378.56;;;18.40;55.02
65784;BME280;52532;53.358;-1.488;2022-10-31T00:13:03;100373.79;;;17.00;56.74
65784;BME280;52532;53.358;-1.488;2022-10-31T00:16:14;100374.47;;;18.35;54.62
65784;BME280;52532;53.358;-1.488;2022-10-31T00:19:17;100378.12;;;18.23;54.73
65784;BME280;52532;53.358;-1.488;2022-10-31T00:22:20;100378.92;;;16.37;58.41
65784;BME280;52532;53.358;-1.488;2022-10-31T00:25:23;100377.08;;;17.34;56.00
65784;BME280;52532;53.358;-1.488;2022-10-31T00:28:25;100376.47;;;17.99;54.58
65784;BME280;52532;53.358;-1.488;2022-10-31T00:31:28;100380.43;;;17.38;55.83
65784;BME280;52532;53.358;-1.488;2022-10-31T00:34:31;100380.27;;;18.55;53.01
65784;BME280;52532;53.358;-1.488;2022-10-31T00:37:34;100385.98;;;18.35;53.44
65784;BME280;52532;53.358;-1.488;2022-10-31T00:40:37;100388.32;;;18.31;53.04
65784;BME280;52532;53.358;-1.488;2022-10-31T00:43:40;100385.93;;;18.56;52.65
65784;BME280;52532;53.358;-1.488;2022-10-31T00:46:43;100389.88;;;16.94;55.01
65784;BME280;52532;53.358;-1.488;2022-10-31T00:49:46;100387.76;;;16.94;55.97
65784;BME280;52532;53.358;-1.488;2022-10-31T00:52:48;100383.87;;;17.39;54.55
65784;BME280;52532;53.358;-1.488;2022-10-31T00:55:51;100389.94;;;17.18;54.33
65784;BME280;52532;53.358;-1.488;2022-10-31T00:58:54;100389.21;;;17.78;53.35
65784;BME280;52532;53.358;-1.488;2022-10-31T01:01:57;100390.68;;;18.01;52.38
65784;BME280;52532;53.358;-1.488;2022-10-31T01:05:00;100395.78;;;18.94;51.11
65784;BME280;52532;53.358;-1.488;2022-10-31T01:08:02;100396.65;;;19.01;51.30
65784;BME280;52532;53.358;-1.488;2022-10-31T01:11:08;100395.49;;;18.01;52.55
65784;BME280;52532;53.358;-1.488;2022-10-31T01:14:12;100394.13;;;17.09;54.06
65784;BME280;52532;53.358;-1.488;2022-10-31T01:17:15;100394.00;;;17.40;53.83
65784;BME280;52532;53.358;-1.488;2022-10-31T01:20:19;100393.58;;;16.72;55.25
65784;BME280;52532;53.358;-1.488;2022-10-31T01:23:21;100404.31;;;17.28;54.40
65784;BME280;52532;53.358;-1.488;2022-10-31T01:26:26;100400.30;;;17.06;55.07
65784;BME280;52532;53.358;-1.488;2022-10-31T01:29:29;100402.54;;;17.49;54.72
65784;BME280;52532;53.358;-1.488;2022-10-31T01:32:32;100401.34;;;16.75;56.37
65784;BME280;52532;53.358;-1.488;2022-10-31T01:35:35;100407.38;;;15.90;59.26
65784;BME280;52532;53.358;-1.488;2022-10-31T01:38:37;100404.42;;;17.17;57.62
65784;BME280;52532;53.358;-1.488;2022-10-31T01:41:42;100403.85;;;17.91;54.75
65784;BME280;52532;53.358;-1.488;2022-10-31T01:44:55;100401.92;;;18.70;53.44
65784;BME280;52532;53.358;-1.488;2022-10-31T01:47:59;100399.67;;;18.00;52.77
65784;BME280;52532;53.358;-1.488;2022-10-31T01:51:02;100400.60;;;19.09;52.46
65784;BME280;52532;53.358;-1.488;2022-10-31T01:54:12;100397.41;;;18.03;53.29
65784;BME280;52532;53.358;-1.488;2022-10-31T01:57:15;100398.91;;;18.27;53.67
65784;BME280;52532;53.358;-1.488;2022-10-31T02:00:21;100406.37;;;18.85;52.42
65784;BME280;52532;53.358;-1.488;2022-10-31T02:03:25;100404.94;;;17.61;53.84
65784;BME280;52532;53.358;-1.488;2022-10-31T02:06:37;100403.33;;;19.13;51.90
65784;BME280;52532;53.358;-1.488;2022-10-31T02:09:41;100403.67;;;17.93;53.60
65784;BME280;52532;53.358;-1.488;2022-10-31T02:12:46;100405.97;;;17.90;54.43
65784;BME280;52532;53.358;-1.488;2022-10-31T02:15:52;100408.68;;;17.64;55.76
65784;BME280;52532;53.358;-1.488;2022-10-31T02:18:55;100410.82;;;17.19;56.39
65784;BME280;52532;53.358;-1.488;2022-10-31T02:22:04;100413.53;;;17.79;57.15
65784;BME280;52532;53.358;-1.488;2022-10-31T02:25:24;100415.20;;;16.88;57.97
65784;BME280;52532;53.358;-1.488;2022-10-31T02:28:42;100416.82;;;16.76;57.64
65784;BME280;52532;53.358;-1.488;2022-10-31T02:31:55;100421.72;;;15.82;60.19
65784;BME280;52532;53.358;-1.488;2022-10-31T02:35:08;100416.27;;;16.43;59.87
65784;BME280;52532;53.358;-1.488;2022-10-31T02:38:23;100413.86;;;16.80;59.51
65784;BME280;52532;53.358;-1.488;2022-10-31T02:41:32;100416.29;;;14.70;63.48
65784;BME280;52532;53.358;-1.488;2022-10-31T02:44:40;100416.06;;;15.38;64.45
65784;BME280;52532;53.358;-1.488;2022-10-31T02:47:49;100412.30;;;16.14;62.17
65784;BME280;52532;53.358;-1.488;2022-10-31T02:50:57;100403.97;;;16.82;60.03
65784;BME280;52532;53.358;-1.488;2022-10-31T02:54:00;100404.71;;;16.56;61.05
65784;BME280;52532;53.358;-1.488;2022-10-31T02:57:05;100404.39;;;16.91;59.82
65784;BME280;52532;53.358;-1.488;2022-10-31T03:00:10;100399.77;;;16.25;62.81
65784;BME280;52532;53.358;-1.488;2022-10-31T03:03:16;100401.82;;;14.96;64.59
65784;BME280;52532;53.358;-1.488;2022-10-31T03:06:27;100396.74;;;13.44;69.21
65784;BME280;52532;53.358;-1.488;2022-10-31T03:09:37;100398.71;;;15.31;64.01
65784;BME280;52532;53.358;-1.488;2022-10-31T03:12:49;100397.06;;;15.89;62.99
65784;BME280;52532;53.358;-1.488;2022-10-31T03:16:04;100389.71;;;15.59;63.73
65784;BME280;52532;53.358;-1.488;2022-10-31T03:19:12;100380.63;;;13.93;66.91
65784;BME280;52532;53.358;-1.488;2022-10-31T03:22:20;100373.09;;;12.73;70.54
65784;BME280;52532;53.358;-1.488;2022-10-31T03:25:24;100364.61;;;14.24;67.40
65784;BME280;52532;53.358;-1.488;2022-10-31T03:28:31;100361.92;;;14.54;66.35
65784;BME280;52532;53.358;-1.488;2022-10-31T03:31:40;100365.72;;;15.49;64.04
65784;BME280;52532;53.358;-1.488;2022-10-31T03:34:46;100366.62;;;15.25;63.67
65784;BME280;52532;53.358;-1.488;2022-10-31T03:37:52;100362.79;;;14.99;66.33
65784;BME280;52532;53.358;-1.488;2022-10-31T03:40:59;100365.86;;;14.38;67.02
65784;BME280;52532;53.358;-1.488;2022-10-31T03:44:06;100366.76;;;14.47;67.01
65784;BME280;52532;53.358;-1.488;2022-10-31T03:47:10;100362.26;;;14.53;66.28
65784;BME280;52532;53.358;-1.488;2022-10-31T03:50:14;100364.43;;;15.40;64.82
65784;BME280;52532;53.358;-1.488;2022-10-31T03:53:22;100363.28;;;16.05;62.94
65784;BME280;52532;53.358;-1.488;2022-10-31T03:56:32;100361.56;;;15.72;62.50
65784;BME280;52532;53.358;-1.488;2022-10-31T03:59:39;100364.99;;;16.63;60.68
65784;BME280;52532;53.358;-1.488;2022-10-31T04:02:50;100365.70;;;17.04;58.97
65784;BME280;52532;53.358;-1.488;2022-10-31T04:05:59;100373.60;;;15.62;61.88
65784;BME280;52532;53.358;-1.488;2022-10-31T04:09:05;100362.72;;;15.30;63.46
65784;BME280;52532;53.358;-1.488;2022-10-31T04:12:12;100365.71;;;15.51;62.90
65784;BME280;52532;53.358;-1.488;2022-10-31T04:15:17;100357.47;;;14.34;65.68
65784;BME280;52532;53.358;-1.488;2022-10-31T04:18:23;100355.89;;;14.59;64.96
65784;BME280;52532;53.358;-1.488;2022-10-31T04:21:28;100352.30;;;14.21;65.32
65784;BME280;52532;53.358;-1.488;2022-10-31T04:24:31;100351.31;;;14.46;67.24
65784;BME280;52532;53.358;-1.488;2022-10-31T04:27:34;100352.91;;;13.62;67.35
65784;BME280;52532;53.358;-1.488;2022-10-31T04:30:41;100358.16;;;14.42;68.32
65784;BME280;52532;53.358;-1.488;2022-10-31T04:33:45;100358.30;;;13.19;71.32
65784;BME280;52532;53.358;-1.488;2022-10-31T04:36:48;100356.43;;;14.40;69.20
65784;BME280;52532;53.358;-1.488;2022-10-31T04:39:51;100353.23;;;12.27;75.65
65784;BME280;52532;53.358;-1.488;2022-10-31T04:42:54;100343.32;;;14.88;67.24
65784;BME280;52532;53.358;-1.488;2022-10-31T04:45:57;100337.16;;;14.75;66.44
65784;BME280;52532;53.358;-1.488;2022-10-31T04:48:59;100333.80;;;14.24;69.63
65784;BME280;52532;53.358;-1.488;2022-10-31T04:52:03;100332.67;;;15.44;66.41
65784;BME280;52532;53.358;-1.488;2022-10-31T04:55:06;100332.14;;;15.88;66.68
65784;BME280;52532;53.358;-1.488;2022-10-31T04:58:09;100329.40;;;14.23;68.37
65784;BME280;52532;53.358;-1.488;2022-10-31T05:01:12;100330.05;;;14.99;65.40
65784;BME280;52532;53.358;-1.488;2022-10-31T05:04:15;100318.41;;;13.00;70.62
65784;BME280;52532;53.358;-1.488;2022-10-31T05:07:18;100314.91;;;15.49;65.84
65784;BME280;52532;53.358;-1.488;2022-10-31T05:10:22;100310.20;;;15.90;64.42
65784;BME280;52532;53.358;-1.488;2022-10-31T05:13:26;100316.36;;;16.27;62.16
65784;BME280;52532;53.358;-1.488;2022-10-31T05:16:29;100324.40;;;16.23;61.54
65784;BME280;52532;53.358;-1.488;2022-10-31T05:19:32;100323.14;;;16.32;60.69
65784;BME280;52532;53.358;-1.488;2022-10-31T05:22:34;100320.74;;;18.09;56.88
65784;BME280;52532;53.358;-1.488;2022-10-31T05:25:37;100319.29;;;17.46;57.44
65784;BME280;52532;53.358;-1.488;2022-10-31T05:28:42;100324.59;;;17.85;58.59
65784;BME280;52532;53.358;-1.488;2022-10-31T05:31:44;100321.02;;;16.93;59.17
65784;BME280;52532;53.358;-1.488;2022-10-31T05:34:47;100319.34;;;17.79;57.27
65784;BME280;52532;53.358;-1.488;2022-10-31T05:37:50;100312.13;;;16.42;59.46
65784;BME280;52532;53.358;-1.488;2022-10-31T05:40:54;100312.64;;;16.25;59.78
65784;BME280;52532;53.358;-1.488;2022-10-31T05:43:59;100304.89;;;18.07;56.19
65784;BME280;52532;53.358;-1.488;2022-10-31T05:47:02;100303.62;;;17.35;57.55
65784;BME280;52532;53.358;-1.488;2022-10-31T05:50:06;100309.22;;;18.59;55.52
65784;BME280;52532;53.358;-1.488;2022-10-31T05:53:09;100305.54;;;17.59;56.27
65784;BME280;52532;53.358;-1.488;2022-10-31T05:56:12;100306.38;;;16.65;58.34
65784;BME280;52532;53.358;-1.488;2022-10-31T05:59:15;100307.34;;;16.03;61.88
65784;BME280;52532;53.358;-1.488;2022-10-31T06:02:17;100301.71;;;16.34;61.57
65784;BME280;52532;53.358;-1.488;2022-10-31T06:05:20;100308.28;;;15.27;64.27
65784;BME280;52532;53.358;-1.488;2022-10-31T06:08:23;100314.07;;;15.51;63.91
65784;BME280;52532;53.358;-1.488;2022-10-31T06:11:25;100315.54;;;14.71;67.12
65784;BME280;52532;53.358;-1.488;2022-10-31T06:14:28;100315.95;;;14.82;69.44
65784;BME280;52532;53.358;-1.488;2022-10-31T06:17:31;100311.11;;;14.13;70.00
65784;BME280;52532;53.358;-1.488;2022-10-31T06:20:34;100304.10;;;13.64;72.24
65784;BME280;52532;53.358;-1.488;2022-10-31T06:23:37;100301.72;;;14.47;70.87
65784;BME280;52532;53.358;-1.488;2022-10-31T06:26:39;100300.40;;;14.37;71.07
65784;BME280;52532;53.358;-1.488;2022-10-31T06:29:42;100299.06;;;11.43;79.15
65784;BME280;52532;53.358;-1.488;2022-10-31T06:32:45;100295.68;;;11.62;81.05
65784;BME280;52532;53.358;-1.488;2022-10-31T06:35:48;100287.83;;;13.91;75.67
65784;BME280;52532;53.358;-1.488;2022-10-31T06:38:50;100284.40;;;13.50;74.37
65784;BME280;52532;53.358;-1.488;2022-10-31T06:41:53;100286.14;;;13.47;71.65
65784;BME280;52532;53.358;-1.488;2022-10-31T06:44:56;100282.54;;;13.39;74.29
65784;BME280;52532;53.358;-1.488;2022-10-31T06:47:59;100284.61;;;13.45;73.13
65784;BME280;52532;53.358;-1.488;2022-10-31T06:51:02;100280.43;;;14.37;71.50
65784;BME280;52532;53.358;-1.488;2022-10-31T06:54:05;100284.28;;;15.55;67.45
65784;BME280;52532;53.358;-1.488;2022-10-31T06:57:08;100276.76;;;16.31;64.78
65784;BME280;52532;53.358;-1.488;2022-10-31T07:00:12;100276.49;;;15.42;64.95
65784;BME280;52532;53.358;-1.488;2022-10-31T07:03:15;100280.69;;;16.00;63.64
65784;BME280;52532;53.358;-1.488;2022-10-31T07:06:18;100275.95;;;16.52;61.97
65784;BME280;52532;53.358;-1.488;2022-10-31T07:09:21;100274.77;;;16.16;62.97
65784;BME280;52532;53.358;-1.488;2022-10-31T07:12:24;100278.69;;;16.26;61.91
65784;BME280;52532;53.358;-1.488;2022-10-31T07:15:29;100276.72;;;16.00;65.92
65784;BME280;52532;53.358;-1.488;2022-10-31T07:18:32;100273.39;;;15.40;64.87
65784;BME280;52532;53.358;-1.488;2022-10-31T07:21:35;100276.64;;;15.25;65.28
65784;BME280;52532;53.358;-1.488;2022-10-31T07:24:37;100272.13;;;16.29;62.32
65784;BME280;52532;53.358;-1.488;2022-10-31T07:27:42;100276.46;;;15.87;63.89
65784;BME280;52532;53.358;-1.488;2022-10-31T07:30:49;100278.81;;;15.98;64.34
65784;BME280;52532;53.358;-1.488;2022-10-31T07:33:54;100278.70;;;15.57;63.95
65784;BME280;52532;53.358;-1.488;2022-10-31T07:36:58;100286.36;;;14.00;66.18
65784;BME280;52532;53.358;-1.488;2022-10-31T07:40:01;100281.38;;;15.03;66.43
65784;BME280;52532;53.358;-1.488;2022-10-31T07:43:04;100292.07;;;14.43;66.59
65784;BME280;52532;53.358;-1.488;2022-10-31T07:46:07;100285.42;;;14.45;68.14
65784;BME280;52532;53.358;-1.488;2022-10-31T07:49:10;100282.02;;;15.89;64.42
65784;BME280;52532;53.358;-1.488;2022-10-31T07:52:13;100288.83;;;14.94;66.36
65784;BME280;52532;53.358;-1.488;2022-10-31T07:55:16;100291.85;;;14.96;65.95
65784;BME280;52532;53.358;-1.488;2022-10-31T07:58:19;100284.29;;;14.27;71.12
65784;BME280;52532;53.358;-1.488;2022-10-31T08:01:26;100288.02;;;14.71;69.83
65784;BME280;52532;53.358;-1.488;2022-10-31T08:04:29;100292.76;;;13.29;72.31
65784;BME280;52532;53.358;-1.488;2022-10-31T08:07:36;100293.70;;;14.38;69.57
65784;BME280;52532;53.358;-1.488;2022-10-31T08:10:39;100300.21;;;13.22;73.34
65784;BME280;52532;53.358;-1.488;2022-10-31T08:13:42;100297.88;;;13.39;74.87
65784;BME280;52532;53.358;-1.488;2022-10-31T08:16:45;100298.61;;;14.77;71.31
65784;BME280;52532;53.358;-1.488;2022-10-31T08:19:48;100306.88;;;15.11;69.82
65784;BME280;52532;53.358;-1.488;2022-10-31T08:22:55;100306.07;;;12.32;76.52
65784;BME280;52532;53.358;-1.488;2022-10-31T08:25:59;100300.97;;;15.22;70.77
65784;BME280;52532;53.358;-1.488;2022-10-31T08:29:02;100310.09;;;14.48;71.93
65784;BME280;52532;53.358;-1.488;2022-10-31T08:32:05;100308.58;;;14.43;71.81
65784;BME280;52532;53.358;-1.488;2022-10-31T08:35:08;100305.78;;;14.82;71.31
65784;BME280;52532;53.358;-1.488;2022-10-31T08:38:12;100301.02;;;15.00;70.80
65784;BME280;52532;53.358;-1.488;2022-10-31T08:41:15;100309.08;;;13.53;74.19
65784;BME280;52532;53.358;-1.488;2022-10-31T08:44:18;100296.90;;;12.92;78.61
65784;BME280;52532;53.358;-1.488;2022-10-31T08:47:21;100293.48;;;14.26;72.93
65784;BME280;52532;53.358;-1.488;2022-10-31T08:50:23;100297.93;;;14.05;71.23
65784;BME280;52532;53.358;-1.488;2022-10-31T08:53:27;100293.32;;;13.94;75.05
65784;BME280;52532;53.358;-1.488;2022-10-31T08:56:30;100291.77;;;12.05;81.74
65784;BME280;52532;53.358;-1.488;2022-10-31T08:59:32;100301.12;;;12.92;79.27
65784;BME280;52532;53.358;-1.488;2022-10-31T09:02:35;100302.82;;;13.54;74.69
65784;BME280;52532;53.358;-1.488;2022-10-31T09:05:48;100305.89;;;15.29;70.85
65784;BME280;52532;53.358;-1.488;2022-10-31T09:08:51;100301.27;;;13.05;75.53
65784;BME280;52532;53.358;-1.488;2022-10-31T09:11:54;100296.91;;;12.35;79.43
65784;BME280;52532;53.358;-1.488;2022-10-31T09:14:57;100299.29;;;14.24;74.21
65784;BME280;52532;53.358;-1.488;2022-10-31T09:18:00;100291.01;;;14.21;73.38
65784;BME280;52532;53.358;-1.488;2022-10-31T09:21:03;100292.43;;;14.07;73.85
65784;BME280;52532;53.358;-1.488;2022-10-31T09:24:06;100287.50;;;14.00;73.22
65784;BME280;52532;53.358;-1.488;2022-10-31T09:27:09;100290.78;;;14.87;70.77
65784;BME280;52532;53.358;-1.488;2022-10-31T09:30:12;100290.95;;;14.71;69.62
65784;BME280;52532;53.358;-1.488;2022-10-31T09:33:15;100288.26;;;15.32;66.65
65784;BME280;52532;53.358;-1.488;2022-10-31T09:36:18;100278.60;;;14.58;69.72
65784;BME280;52532;53.358;-1.488;2022-10-31T09:39:21;100270.08;;;13.20;75.85
65784;BME280;52532;53.358;-1.488;2022-10-31T09:42:35;100264.53;;;15.28;67.73
65784;BME280;52532;53.358;-1.488;2022-10-31T09:45:51;100256.72;;;15.59;66.95
65784;BME280;52532;53.358;-1.488;2022-10-31T09:49:10;100261.33;;;16.12;65.43
65784;BME280;52532;53.358;-1.488;2022-10-31T09:52:20;100262.30;;;15.06;67.85
65784;BME280;52532;53.358;-1.488;2022-10-31T09:55:31;100260.96;;;16.32;64.46
65784;BME280;52532;53.358;-1.488;2022-10-31T09:58:42;100265.94;;;16.76;63.47
65784;BME280;52532;53.358;-1.488;2022-10-31T10:01:49;100268.04;;;14.07;71.77
65784;BME280;52532;53.358;-1.488;2022-10-31T10:04:57;100271.12;;;17.25;62.62
65784;BME280;52532;53.358;-1.488;2022-10-31T10:08:03;100269.29;;;17.48;61.25
65784;BME280;52532;53.358;-1.488;2022-10-31T10:11:26;100267.92;;;17.14;61.75
65784;BME280;52532;53.358;-1.488;2022-10-31T10:14:41;100273.64;;;14.75;67.80
65784;BME280;52532;53.358;-1.488;2022-10-31T10:17:51;100272.39;;;16.02;64.47
65784;BME280;52532;53.358;-1.488;2022-10-31T10:21:04;100270.92;;;16.99;62.62
65784;BME280;52532;53.358;-1.488;2022-10-31T10:24:17;100269.24;;;16.11;63.29
65784;BME280;52532;53.358;-1.488;2022-10-31T10:27:30;100264.72;;;17.32;61.92
65784;BME280;52532;53.358;-1.488;2022-10-31T10:30:40;100264.83;;;14.72;66.18
65784;BME280;52532;53.358;-1.488;2022-10-31T10:33:59;100259.05;;;15.63;63.57
65784;BME280;52532;53.358;-1.488;2022-10-31T10:37:19;100263.06;;;15.10;66.29
65784;BME280;52532;53.358;-1.488;2022-10-31T10:40:25;100265.74;;;15.07;66.70
65784;BME280;52532;53.358;-1.488;2022-10-31T10:43:33;100254.27;;;16.95;61.56
65784;BME280;52532;53.358;-1.488;2022-10-31T10:46:40;100252.95;;;16.02;64.13
65784;BME280;52532;53.358;-1.488;2022-10-31T10:50:51;100263.25;;;14.80;67.67
65784;BME280;52532;53.358;-1.488;2022-10-31T10:54:04;100260.04;;;16.59;63.09
65784;BME280;52532;53.358;-1.488;2022-10-31T10:57:22;100252.98;;;15.73;63.84
65784;BME280;52532;53.358;-1.488;2022-10-31T11:00:32;100252.69;;;17.05;62.59
65784;BME280;52532;53.358;-1.488;2022-10-31T11:03:36;100253.34;;;15.71;64.75
65784;BME280;52532;53.358;-1.488;2022-10-31T11:06:39;100247.99;;;15.78;62.22
65784;BME280;52532;53.358;-1.488;2022-10-31T11:09:42;100249.04;;;17.19;59.64
65784;BME280;52532;53.358;-1.488;2022-10-31T11:12:58;100250.06;;;17.31;61.63
65784;BME280;52532;53.358;-1.488;2022-10-31T11:16:04;100242.90;;;15.99;64.10
65784;BME280;52532;53.358;-1.488;2022-10-31T11:19:15;100237.95;;;16.55;64.81
65784;BME280;52532;53.358;-1.488;2022-10-31T11:22:18;100229.64;;;17.53;62.08
65784;BME280;52532;53.358;-1.488;2022-10-31T11:25:22;100221.09;;;17.87;60.55
65784;BME280;52532;53.358;-1.488;2022-10-31T11:28:32;100216.90;;;16.62;63.02
65784;BME280;52532;53.358;-1.488;2022-10-31T11:31:36;100206.59;;;17.49;59.86
65784;BME280;52532;53.358;-1.488;2022-10-31T11:34:43;100204.32;;;16.01;65.17
65784;BME280;52532;53.358;-1.488;2022-10-31T11:37:49;100208.01;;;14.36;69.19
65784;BME280;52532;53.358;-1.488;2022-10-31T11:40:57;100196.77;;;14.68;67.02
65784;BME280;52532;53.358;-1.488;2022-10-31T11:44:04;100190.58;;;15.14;66.02
65784;BME280;52532;53.358;-1.488;2022-10-31T11:47:12;100186.69;;;15.96;64.49
65784;BME280;52532;53.358;-1.488;2022-10-31T11:50:22;100181.79;;;17.32;61.49
65784;BME280;52532;53.358;-1.488;2022-10-31T11:53:28;100188.80;;;14.33;71.23
65784;BME280;52532;53.358;-1.488;2022-10-31T11:56:40;100173.84;;;17.35;62.33
65784;BME280;52532;53.358;-1.488;2022-10-31T11:59:51;100167.94;;;16.29;64.67
65784;BME280;52532;53.358;-1.488;2022-10-31T12:03:11;100163.93;;;15.15;68.18
65784;BME280;52532;53.358;-1.488;2022-10-31T12:06:22;100169.60;;;17.35;63.25
65784;BME280;52532;53.358;-1.488;2022-10-31T12:09:28;100167.21;;;13.91;71.55
65784;BME280;52532;53.358;-1.488;2022-10-31T12:12:44;100151.85;;;14.79;69.48
65784;BME280;52532;53.358;-1.488;2022-10-31T12:15:55;100148.65;;;15.99;66.33
65784;BME280;52532;53.358;-1.488;2022-10-31T12:19:04;100143.77;;;14.82;67.47
65784;BME280;52532;53.358;-1.488;2022-10-31T12:22:13;100150.01;;;15.49;66.25
65784;BME280;52532;53.358;-1.488;2022-10-31T12:25:28;100142.27;;;14.05;70.16
65784;BME280;52532;53.358;-1.488;2022-10-31T12:28:44;100138.22;;;14.85;71.40
65784;BME280;52532;53.358;-1.488;2022-10-31T12:31:58;100140.47;;;16.12;65.58
65784;BME280;52532;53.358;-1.488;2022-10-31T12:35:20;100133.26;;;17.30;62.91
65784;BME280;52532;53.358;-1.488;2022-10-31T12:38:34;100125.38;;;14.71;66.79
65784;BME280;52532;53.358;-1.488;2022-10-31T12:41:47;100121.85;;;17.46;62.07
65784;BME280;52532;53.358;-1.488;2022-10-31T12:45:05;100119.31;;;16.21;65.36
65784;BME280;52532;53.358;-1.488;2022-10-31T12:48:24;100104.09;;;17.11;63.05
65784;BME280;52532;53.358;-1.488;2022-10-31T12:51:36;100105.46;;;17.25;62.13
65784;BME280;52532;53.358;-1.488;2022-10-31T12:54:52;100097.03;;;15.18;65.95
65784;BME280;52532;53.358;-1.488;2022-10-31T12:58:01;100091.58;;;16.68;62.90
65784;BME280;52532;53.358;-1.488;2022-10-31T13:01:09;100085.73;;;16.13;63.31
65784;BME280;52532;53.358;-1.488;2022-10-31T13:04:16;100076.27;;;17.78;59.23
65784;BME280;52532;53.358;-1.488;2022-10-31T13:07:24;100069.36;;;16.67;61.93
65784;BME280;52532;53.358;-1.488;2022-10-31T13:10:31;100064.77;;;14.89;66.35
65784;BME280;52532;53.358;-1.488;2022-10-31T13:13:38;100062.50;;;15.72;65.40
65784;BME280;52532;53.358;-1.488;2022-10-31T13:16:45;100063.86;;;17.72;58.80
65784;BME280;52532;53.358;-1.488;2022-10-31T13:19:49;100052.67;;;16.93;59.33
65784;BME280;52532;53.358;-1.488;2022-10-31T13:23:05;100055.42;;;17.31;59.34
65784;BME280;52532;53.358;-1.488;2022-10-31T13:26:13;100056.34;;;17.11;58.12
65784;BME280;52532;53.358;-1.488;2022-10-31T13:29:22;100051.89;;;17.65;57.41
65784;BME280;52532;53.358;-1.488;2022-10-31T13:32:28;100045.87;;;17.89;57.84
65784;BME280;52532;53.358;-1.488;2022-10-31T13:35:40;100038.23;;;18.14;58.38
65784;BME280;52532;53.358;-1.488;2022-10-31T13:38:50;100031.27;;;18.40;56.99
65784;BME280;52532;53.358;-1.488;2022-10-31T13:41:59;100021.42;;;17.64;58.45
65784;BME280;52532;53.358;-1.488;2022-10-31T13:45:12;100024.86;;;14.88;65.50
65784;BME280;52532;53.358;-1.488;2022-10-31T13:48:32;100009.72;;;17.31;61.29
65784;BME280;52532;53.358;-1.488;2022-10-31T13:51:36;100012.09;;;17.33;60.24
65784;BME280;52532;53.358;-1.488;2022-10-31T13:54:40;99994.42;;;16.42;61.69
65784;BME280;52532;53.358;-1.488;2022-10-31T13:57:44;99992.38;;;14.21;67.92
65784;BME280;52532;53.358;-1.488;2022-10-31T14:00:58;99985.46;;;16.90;61.20
65784;BME280;52532;53.358;-1.488;2022-10-31T14:04:04;99981.96;;;17.87;58.88
65784;BME280;52532;53.358;-1.488;2022-10-31T14:07:10;99988.26;;;16.75;61.13
65784;BME280;52532;53.358;-1.488;2022-10-31T14:10:22;99979.58;;;14.84;69.66
65784;BME280;52532;53.358;-1.488;2022-10-31T14:13:31;99977.67;;;17.11;62.86
65784;BME280;52532;53.358;-1.488;2022-10-31T14:16:35;99976.13;;;17.32;62.31
65784;BME280;52532;53.358;-1.488;2022-10-31T14:19:40;99967.25;;;18.15;58.90
65784;BME280;52532;53.358;-1.488;2022-10-31T14:22:43;99968.44;;;16.08;62.85
65784;BME280;52532;53.358;-1.488;2022-10-31T14:25:46;99957.66;;;18.12;59.56
65784;BME280;52532;53.358;-1.488;2022-10-31T14:28:50;99960.79;;;17.89;58.20
65784;BME280;52532;53.358;-1.488;2022-10-31T14:31:56;99956.99;;;19.03;55.27
65784;BME280;52532;53.358;-1.488;2022-10-31T14:35:00;99955.14;;;19.12;54.91
65784;BME280;52532;53.358;-1.488;2022-10-31T14:38:16;99949.71;;;18.43;57.73
65784;BME280;52532;53.358;-1.488;2022-10-31T14:41:35;99937.69;;;16.76;60.42
65784;BME280;52532;53.358;-1.488;2022-10-31T14:44:52;99924.98;;;18.97;55.30
65784;BME280;52532;53.358;-1.488;2022-10-31T14:48:13;99919.39;;;19.65;53.89
65784;BME280;52532;53.358;-1.488;2022-10-31T14:51:21;99919.89;;;17.14;59.13
65784;BME280;52532;53.358;-1.488;2022-10-31T14:54:30;99913.73;;;19.65;54.55
65784;BME280;52532;53.358;-1.488;2022-10-31T14:57:35;99914.94;;;19.47;53.64
65784;BME280;52532;53.358;-1.488;2022-10-31T15:00:43;99911.78;;;19.33;53.72
65784;BME280;52532;53.358;-1.488;2022-10-31T15:03:46;99906.76;;;19.12;55.26
65784;BME280;52532;53.358;-1.488;2022-10-31T15:06:52;99905.48;;;19.80;52.86
65784;BME280;52532;53.358;-1.488;2022-10-31T15:09:57;99903.71;;;19.00;53.99
65784;BME280;52532;53.358;-1.488;2022-10-31T15:13:09;99895.85;;;18.52;55.79
65784;BME280;52532;53.358;-1.488;2022-10-31T15:16:14;99885.49;;;20.54;51.38
65784;BME280;52532;53.358;-1.488;2022-10-31T15:19:21;99874.40;;;16.85;58.15
65784;BME280;52532;53.358;-1.488;2022-10-31T15:22:26;99867.34;;;18.76;54.66
65784;BME280;52532;53.358;-1.488;2022-10-31T15:25:35;99862.03;;;18.77;54.27
65784;BME280;52532;53.358;-1.488;2022-10-31T15:28:38;99859.49;;;19.33;52.62
65784;BME280;52532;53.358;-1.488;2022-10-31T15:31:49;99858.45;;;19.75;52.06
65784;BME280;52532;53.358;-1.488;2022-10-31T15:34:53;99849.94;;;20.22;51.85
65784;BME280;52532;53.358;-1.488;2022-10-31T15:37:57;99849.11;;;19.37;54.38
65784;BME280;52532;53.358;-1.488;2022-10-31T15:41:04;99848.07;;;19.42;54.69
65784;BME280;52532;53.358;-1.488;2022-10-31T15:44:15;99838.81;;;17.53;58.91
65784;BME280;52532;53.358;-1.488;2022-10-31T15:47:21;99832.31;;;18.03;58.12
65784;BME280;52532;53.358;-1.488;2022-10-31T15:50:31;99833.14;;;19.14;54.88
65784;BME280;52532;53.358;-1.488;2022-10-31T15:53:36;99825.76;;;18.85;54.90
65784;BME280;52532;53.358;-1.488;2022-10-31T15:56:43;99821.20;;;18.38;55.23
65784;BME280;52532;53.358;-1.488;2022-10-31T15:59:48;99812.54;;;19.85;52.04
65784;BME280;52532;53.358;-1.488;2022-10-31T16:03:03;99810.13;;;19.37;53.05